sensor_id;sensor_type;location;lat;lon;timestamp;P1;durP1;ratioP1;P2;durP2;ratioP2
16524;SDS011;8375;33.594;-117.718;2022-09-14T00:01:41;5.70;;;2.40;;
16524;SDS011;8375;33.594;-117.718;2022-09-14T00:04:10;5.50;;;2.63;;
16524;SDS011;8375;33.594;-117.718;2022-09-14T00:06:40;9.52;;;3.25;;
16524;SDS011;8375;33.594;-117.718;2022-09-14T00:09:11;6.75;;;3.17;;
16524;SDS011;8375;33.594;-117.718;2022-09-14T00:11:43;6.90;;;3.55;;
16524;SDS011;8375;33.594;-117.718;2022-09-14T00:14:12;5.10;;;2.95;;
16524;SDS011;8375;33.594;-117.718;2022-09-14T00:16:41;7.93;;;4.13;;
16524;SDS011;8375;33.594;-117.718;2022-09-14T00:19:14;8.07;;;4.32;;
16524;SDS011;8375;33.594;-117.718;2022-09-14T00:21:44;10.82;;;4.47;;
16524;SDS011;8375;33.594;-117.718;2022-09-14T00:24:16;8.50;;;4.38;;
16524;SDS011;8375;33.594;-117.718;2022-09-14T00:26:46;8.02;;;4.00;;
16524;SDS011;8375;33.594;-117.718;2022-09-14T00:29:15;9.07;;;5.22;;
16524;SDS011;8375;33.594;-117.718;2022-09-14T00:31:44;12.25;;;5.28;;
16524;SDS011;8375;33.594;-117.718;2022-09-14T00:34:13;12.13;;;4.85;;
16524;SDS011;8375;33.594;-117.718;2022-09-14T00:36:43;8.45;;;4.70;;
16524;SDS011;8375;33.594;-117.718;2022-09-14T00:39:13;8.05;;;4.68;;
16524;SDS011;8375;33.594;-117.718;2022-09-14T00:41:43;10.05;;;4.05;;
16524;SDS011;8375;33.594;-117.718;2022-09-14T00:47:21;8.93;;;4.47;;
16524;SDS011;8375;33.594;-117.718;2022-09-14T00:49:50;11.23;;;4.35;;
16524;SDS011;8375;33.594;-117.718;2022-09-14T00:52:19;8.77;;;4.03;;
16524;SDS011;8375;33.594;-117.718;2022-09-14T00:54:51;11.43;;;4.25;;
16524;SDS011;8375;33.594;-117.718;2022-09-14T00:57:21;11.65;;;5.40;;
16524;SDS011;8375;33.594;-117.718;2022-09-14T00:59:51;11.45;;;4.60;;
16524;SDS011;8375;33.594;-117.718;2022-09-14T01:02:22;10.65;;;4.93;;
16524;SDS011;8375;33.594;-117.718;2022-09-14T01:04:53;14.40;;;5.07;;
16524;SDS011;8375;33.594;-117.718;2022-09-14T01:07:26;11.25;;;5.22;;
16524;SDS011;8375;33.594;-117.718;2022-09-14T01:10:07;10.85;;;5.97;;
16524;SDS011;8375;33.594;-117.718;2022-09-14T01:12:51;11.40;;;5.50;;
16524;SDS011;8375;33.594;-117.718;2022-09-14T01:15:29;11.68;;;6.65;;
16524;SDS011;8375;33.594;-117.718;2022-09-14T01:18:08;12.32;;;5.90;;
16524;SDS011;8375;33.594;-117.718;2022-09-14T01:20:43;17.90;;;6.55;;
16524;SDS011;8375;33.594;-117.718;2022-09-14T01:23:21;12.40;;;5.65;;
16524;SDS011;8375;33.594;-117.718;2022-09-14T01:29:12;16.38;;;6.35;;
16524;SDS011;8375;33.594;-117.718;2022-09-14T01:31:44;13.02;;;5.78;;
16524;SDS011;8375;33.594;-117.718;2022-09-14T01:34:23;15.05;;;6.68;;
16524;SDS011;8375;33.594;-117.718;2022-09-14T01:36:58;14.18;;;6.40;;
16524;SDS011;8375;33.594;-117.718;2022-09-14T01:39:37;16.95;;;6.40;;
16524;SDS011;8375;33.594;-117.718;2022-09-14T01:42:12;18.17;;;6.70;;
16524;SDS011;8375;33.594;-117.718;2022-09-14T01:44:45;15.25;;;6.57;;
16524;SDS011;8375;33.594;-117.718;2022-09-14T01:47:22;20.23;;;7.10;;
16524;SDS011;8375;33.594;-117.718;2022-09-14T01:49:58;17.50;;;7.03;;
16524;SDS011;8375;33.594;-117.718;2022-09-14T01:52:35;14.57;;;6.50;;
16524;SDS011;8375;33.594;-117.718;2022-09-14T01:55:14;17.25;;;7.07;;
16524;SDS011;8375;33.594;-117.718;2022-09-14T01:57:53;19.58;;;6.80;;
16524;SDS011;8375;33.594;-117.718;2022-09-14T02:00:32;15.93;;;6.40;;
16524;SDS011;8375;33.594;-117.718;2022-09-14T02:03:04;21.67;;;6.95;;
16524;SDS011;8375;33.594;-117.718;2022-09-14T02:05:39;13.18;;;5.97;;
16524;SDS011;8375;33.594;-117.718;2022-09-14T02:08:14;16.10;;;6.18;;
16524;SDS011;8375;33.594;-117.718;2022-09-14T02:10:43;19.10;;;6.65;;
16524;SDS011;8375;33.594;-117.718;2022-09-14T02:13:12;15.30;;;6.97;;
16524;SDS011;8375;33.594;-117.718;2022-09-14T02:15:42;14.43;;;6.78;;
16524;SDS011;8375;33.594;-117.718;2022-09-14T02:18:11;14.60;;;6.78;;
16524;SDS011;8375;33.594;-117.718;2022-09-14T02:20:40;15.13;;;6.32;;
16524;SDS011;8375;33.594;-117.718;2022-09-14T02:23:12;14.98;;;6.70;;
16524;SDS011;8375;33.594;-117.718;2022-09-14T02:25:40;18.35;;;6.35;;
16524;SDS011;8375;33.594;-117.718;2022-09-14T02:28:09;14.68;;;6.40;;
16524;SDS011;8375;33.594;-117.718;2022-09-14T02:30:40;17.23;;;6.53;;
16524;SDS011;8375;33.594;-117.718;2022-09-14T02:33:15;17.55;;;7.45;;
16524;SDS011;8375;33.594;-117.718;2022-09-14T02:35:51;16.92;;;6.85;;
16524;SDS011;8375;33.594;-117.718;2022-09-14T02:38:24;16.02;;;6.28;;
16524;SDS011;8375;33.594;-117.718;2022-09-14T02:41:02;15.75;;;6.32;;
16524;SDS011;8375;33.594;-117.718;2022-09-14T02:43:37;15.73;;;6.82;;
16524;SDS011;8375;33.594;-117.718;2022-09-14T02:46:13;20.55;;;7.30;;
16524;SDS011;8375;33.594;-117.718;2022-09-14T02:48:47;18.77;;;7.43;;
16524;SDS011;8375;33.594;-117.718;2022-09-14T02:51:24;15.55;;;6.63;;
16524;SDS011;8375;33.594;-117.718;2022-09-14T02:53:58;14.90;;;6.53;;
16524;SDS011;8375;33.594;-117.718;2022-09-14T02:56:30;21.05;;;7.47;;
16524;SDS011;8375;33.594;-117.718;2022-09-14T02:59:01;18.98;;;7.15;;
16524;SDS011;8375;33.594;-117.718;2022-09-14T03:01:31;18.27;;;6.57;;
16524;SDS011;8375;33.594;-117.718;2022-09-14T03:04:00;18.92;;;6.75;;
16524;SDS011;8375;33.594;-117.718;2022-09-14T03:06:29;18.13;;;6.93;;
16524;SDS011;8375;33.594;-117.718;2022-09-14T03:08:58;14.20;;;6.35;;
16524;SDS011;8375;33.594;-117.718;2022-09-14T03:11:27;19.15;;;7.55;;
16524;SDS011;8375;33.594;-117.718;2022-09-14T03:13:55;17.52;;;7.07;;
16524;SDS011;8375;33.594;-117.718;2022-09-14T03:16:24;15.98;;;6.53;;
16524;SDS011;8375;33.594;-117.718;2022-09-14T03:18:54;20.58;;;7.18;;
16524;SDS011;8375;33.594;-117.718;2022-09-14T03:21:23;17.33;;;6.97;;
16524;SDS011;8375;33.594;-117.718;2022-09-14T03:23:51;21.30;;;7.22;;
16524;SDS011;8375;33.594;-117.718;2022-09-14T03:26:22;18.23;;;7.32;;
16524;SDS011;8375;33.594;-117.718;2022-09-14T03:28:54;14.82;;;7.03;;
16524;SDS011;8375;33.594;-117.718;2022-09-14T03:31:23;17.50;;;7.13;;
16524;SDS011;8375;33.594;-117.718;2022-09-14T03:33:54;23.63;;;7.32;;
16524;SDS011;8375;33.594;-117.718;2022-09-14T03:36:24;16.75;;;7.15;;
16524;SDS011;8375;33.594;-117.718;2022-09-14T03:38:54;25.02;;;7.80;;
16524;SDS011;8375;33.594;-117.718;2022-09-14T03:41:24;16.80;;;7.45;;
16524;SDS011;8375;33.594;-117.718;2022-09-14T03:43:53;15.75;;;7.55;;
16524;SDS011;8375;33.594;-117.718;2022-09-14T03:46:22;16.58;;;6.82;;
16524;SDS011;8375;33.594;-117.718;2022-09-14T03:48:52;18.70;;;7.15;;
16524;SDS011;8375;33.594;-117.718;2022-09-14T03:51:23;20.88;;;7.45;;
16524;SDS011;8375;33.594;-117.718;2022-09-14T03:53:51;17.95;;;7.70;;
16524;SDS011;8375;33.594;-117.718;2022-09-14T03:56:20;24.48;;;8.02;;
16524;SDS011;8375;33.594;-117.718;2022-09-14T03:58:50;16.23;;;7.35;;
16524;SDS011;8375;33.594;-117.718;2022-09-14T04:01:20;21.10;;;7.55;;
16524;SDS011;8375;33.594;-117.718;2022-09-14T04:03:49;18.63;;;8.13;;
16524;SDS011;8375;33.594;-117.718;2022-09-14T04:06:20;16.77;;;7.40;;
16524;SDS011;8375;33.594;-117.718;2022-09-14T04:08:48;18.80;;;7.00;;
16524;SDS011;8375;33.594;-117.718;2022-09-14T04:11:18;21.88;;;7.00;;
16524;SDS011;8375;33.594;-117.718;2022-09-14T04:13:50;21.33;;;7.72;;
16524;SDS011;8375;33.594;-117.718;2022-09-14T04:16:19;18.65;;;7.05;;
16524;SDS011;8375;33.594;-117.718;2022-09-14T04:18:48;18.20;;;7.25;;
16524;SDS011;8375;33.594;-117.718;2022-09-14T04:21:18;24.15;;;8.23;;
16524;SDS011;8375;33.594;-117.718;2022-09-14T04:23:50;17.83;;;7.65;;
16524;SDS011;8375;33.594;-117.718;2022-09-14T04:26:20;20.70;;;8.02;;
16524;SDS011;8375;33.594;-117.718;2022-09-14T04:28:51;24.08;;;8.40;;
16524;SDS011;8375;33.594;-117.718;2022-09-14T04:31:20;22.23;;;8.07;;
16524;SDS011;8375;33.594;-117.718;2022-09-14T04:33:49;17.85;;;7.40;;
16524;SDS011;8375;33.594;-117.718;2022-09-14T04:36:18;22.38;;;8.45;;
16524;SDS011;8375;33.594;-117.718;2022-09-14T04:38:52;20.05;;;8.35;;
16524;SDS011;8375;33.594;-117.718;2022-09-14T04:41:21;22.57;;;8.33;;
16524;SDS011;8375;33.594;-117.718;2022-09-14T04:43:50;20.47;;;7.97;;
16524;SDS011;8375;33.594;-117.718;2022-09-14T04:46:20;21.97;;;7.63;;
16524;SDS011;8375;33.594;-117.718;2022-09-14T04:48:50;20.03;;;7.90;;
16524;SDS011;8375;33.594;-117.718;2022-09-14T04:51:20;19.47;;;7.67;;
16524;SDS011;8375;33.594;-117.718;2022-09-14T04:53:51;21.13;;;8.33;;
16524;SDS011;8375;33.594;-117.718;2022-09-14T04:56:21;23.03;;;7.97;;
16524;SDS011;8375;33.594;-117.718;2022-09-14T04:58:51;18.98;;;8.63;;
16524;SDS011;8375;33.594;-117.718;2022-09-14T05:01:21;22.63;;;8.23;;
16524;SDS011;8375;33.594;-117.718;2022-09-14T05:03:51;23.67;;;8.67;;
16524;SDS011;8375;33.594;-117.718;2022-09-14T05:06:23;24.57;;;8.40;;
16524;SDS011;8375;33.594;-117.718;2022-09-14T05:08:52;21.63;;;8.27;;
16524;SDS011;8375;33.594;-117.718;2022-09-14T05:11:22;30.00;;;9.63;;
16524;SDS011;8375;33.594;-117.718;2022-09-14T05:13:53;25.40;;;8.93;;
16524;SDS011;8375;33.594;-117.718;2022-09-14T05:16:23;22.57;;;8.43;;
16524;SDS011;8375;33.594;-117.718;2022-09-14T05:18:53;25.50;;;8.25;;
16524;SDS011;8375;33.594;-117.718;2022-09-14T05:21:28;21.30;;;8.57;;
16524;SDS011;8375;33.594;-117.718;2022-09-14T05:23:58;26.57;;;9.47;;
16524;SDS011;8375;33.594;-117.718;2022-09-14T05:26:28;20.23;;;8.20;;
16524;SDS011;8375;33.594;-117.718;2022-09-14T05:28:58;22.87;;;8.20;;
16524;SDS011;8375;33.594;-117.718;2022-09-14T05:31:28;23.27;;;9.07;;
16524;SDS011;8375;33.594;-117.718;2022-09-14T05:33:57;22.77;;;8.00;;
16524;SDS011;8375;33.594;-117.718;2022-09-14T05:36:27;22.38;;;8.40;;
16524;SDS011;8375;33.594;-117.718;2022-09-14T05:38:56;25.30;;;8.50;;
16524;SDS011;8375;33.594;-117.718;2022-09-14T05:41:25;27.37;;;8.73;;
16524;SDS011;8375;33.594;-117.718;2022-09-14T05:43:54;20.90;;;7.93;;
16524;SDS011;8375;33.594;-117.718;2022-09-14T05:46:24;20.23;;;8.73;;
16524;SDS011;8375;33.594;-117.718;2022-09-14T05:48:53;22.20;;;8.43;;
16524;SDS011;8375;33.594;-117.718;2022-09-14T05:51:22;25.07;;;8.67;;
16524;SDS011;8375;33.594;-117.718;2022-09-14T05:53:54;20.67;;;8.63;;
16524;SDS011;8375;33.594;-117.718;2022-09-14T05:56:25;18.87;;;8.50;;
16524;SDS011;8375;33.594;-117.718;2022-09-14T05:58:56;21.03;;;8.63;;
16524;SDS011;8375;33.594;-117.718;2022-09-14T06:01:25;26.07;;;8.80;;
16524;SDS011;8375;33.594;-117.718;2022-09-14T06:03:55;19.63;;;8.47;;
16524;SDS011;8375;33.594;-117.718;2022-09-14T06:06:25;25.77;;;10.10;;
16524;SDS011;8375;33.594;-117.718;2022-09-14T06:08:55;24.40;;;9.20;;
16524;SDS011;8375;33.594;-117.718;2022-09-14T06:11:24;23.83;;;9.57;;
16524;SDS011;8375;33.594;-117.718;2022-09-14T06:13:54;25.80;;;9.67;;
16524;SDS011;8375;33.594;-117.718;2022-09-14T06:16:24;24.80;;;9.30;;
16524;SDS011;8375;33.594;-117.718;2022-09-14T06:18:53;25.90;;;9.73;;
16524;SDS011;8375;33.594;-117.718;2022-09-14T06:21:26;26.00;;;10.33;;
16524;SDS011;8375;33.594;-117.718;2022-09-14T06:23:58;25.17;;;9.83;;
16524;SDS011;8375;33.594;-117.718;2022-09-14T06:26:26;22.30;;;9.40;;
16524;SDS011;8375;33.594;-117.718;2022-09-14T06:28:55;27.97;;;9.93;;
16524;SDS011;8375;33.594;-117.718;2022-09-14T06:31:24;26.87;;;10.40;;
16524;SDS011;8375;33.594;-117.718;2022-09-14T06:33:52;21.13;;;8.83;;
16524;SDS011;8375;33.594;-117.718;2022-09-14T06:36:21;22.67;;;9.30;;
16524;SDS011;8375;33.594;-117.718;2022-09-14T06:38:51;21.50;;;9.60;;
16524;SDS011;8375;33.594;-117.718;2022-09-14T06:41:22;25.27;;;10.07;;
16524;SDS011;8375;33.594;-117.718;2022-09-14T06:43:54;22.67;;;9.73;;
16524;SDS011;8375;33.594;-117.718;2022-09-14T06:46:24;22.47;;;9.10;;
16524;SDS011;8375;33.594;-117.718;2022-09-14T06:48:54;24.27;;;9.53;;
16524;SDS011;8375;33.594;-117.718;2022-09-14T06:51:25;24.53;;;9.30;;
16524;SDS011;8375;33.594;-117.718;2022-09-14T06:53:55;27.73;;;9.37;;
16524;SDS011;8375;33.594;-117.718;2022-09-14T06:56:27;23.47;;;9.30;;
16524;SDS011;8375;33.594;-117.718;2022-09-14T06:58:57;21.00;;;9.00;;
16524;SDS011;8375;33.594;-117.718;2022-09-14T07:01:26;23.10;;;9.30;;
16524;SDS011;8375;33.594;-117.718;2022-09-14T07:03:55;20.33;;;9.10;;
16524;SDS011;8375;33.594;-117.718;2022-09-14T07:06:25;26.93;;;9.20;;
16524;SDS011;8375;33.594;-117.718;2022-09-14T07:08:56;19.40;;;8.43;;
16524;SDS011;8375;33.594;-117.718;2022-09-14T07:11:27;22.20;;;8.93;;
16524;SDS011;8375;33.594;-117.718;2022-09-14T07:13:56;20.17;;;8.30;;
16524;SDS011;8375;33.594;-117.718;2022-09-14T07:16:25;17.27;;;8.43;;
16524;SDS011;8375;33.594;-117.718;2022-09-14T07:18:53;23.90;;;8.33;;
16524;SDS011;8375;33.594;-117.718;2022-09-14T07:21:23;20.37;;;8.77;;
16524;SDS011;8375;33.594;-117.718;2022-09-14T07:23:52;20.53;;;8.80;;
16524;SDS011;8375;33.594;-117.718;2022-09-14T07:26:22;25.23;;;8.87;;
16524;SDS011;8375;33.594;-117.718;2022-09-14T07:28:54;21.90;;;8.77;;
16524;SDS011;8375;33.594;-117.718;2022-09-14T07:31:24;22.30;;;9.03;;
16524;SDS011;8375;33.594;-117.718;2022-09-14T07:33:54;16.97;;;8.30;;
16524;SDS011;8375;33.594;-117.718;2022-09-14T07:36:25;18.37;;;8.37;;
16524;SDS011;8375;33.594;-117.718;2022-09-14T07:38:54;21.30;;;9.10;;
16524;SDS011;8375;33.594;-117.718;2022-09-14T07:41:23;21.53;;;8.47;;
16524;SDS011;8375;33.594;-117.718;2022-09-14T07:43:55;19.73;;;9.13;;
16524;SDS011;8375;33.594;-117.718;2022-09-14T07:46:25;26.93;;;9.23;;
16524;SDS011;8375;33.594;-117.718;2022-09-14T07:48:55;20.97;;;8.67;;
16524;SDS011;8375;33.594;-117.718;2022-09-14T07:51:25;18.17;;;8.30;;
16524;SDS011;8375;33.594;-117.718;2022-09-14T07:53:55;22.97;;;8.90;;
16524;SDS011;8375;33.594;-117.718;2022-09-14T07:56:24;20.83;;;9.10;;
16524;SDS011;8375;33.594;-117.718;2022-09-14T07:58:55;19.63;;;9.10;;
16524;SDS011;8375;33.594;-117.718;2022-09-14T08:01:24;21.20;;;8.33;;
16524;SDS011;8375;33.594;-117.718;2022-09-14T08:03:55;20.00;;;9.23;;
16524;SDS011;8375;33.594;-117.718;2022-09-14T08:06:27;22.70;;;8.70;;
16524;SDS011;8375;33.594;-117.718;2022-09-14T08:08:56;23.53;;;9.77;;
16524;SDS011;8375;33.594;-117.718;2022-09-14T08:11:25;24.47;;;8.77;;
16524;SDS011;8375;33.594;-117.718;2022-09-14T08:13:57;21.63;;;10.07;;
16524;SDS011;8375;33.594;-117.718;2022-09-14T08:16:28;21.53;;;9.17;;
16524;SDS011;8375;33.594;-117.718;2022-09-14T08:18:58;26.67;;;9.13;;
16524;SDS011;8375;33.594;-117.718;2022-09-14T08:21:27;19.67;;;9.13;;
16524;SDS011;8375;33.594;-117.718;2022-09-14T08:23:57;21.00;;;8.63;;
16524;SDS011;8375;33.594;-117.718;2022-09-14T08:26:28;18.80;;;8.97;;
16524;SDS011;8375;33.594;-117.718;2022-09-14T08:28:59;22.93;;;9.20;;
16524;SDS011;8375;33.594;-117.718;2022-09-14T08:31:29;21.43;;;9.53;;
16524;SDS011;8375;33.594;-117.718;2022-09-14T08:34:02;24.93;;;9.23;;
16524;SDS011;8375;33.594;-117.718;2022-09-14T08:36:31;24.70;;;9.17;;
16524;SDS011;8375;33.594;-117.718;2022-09-14T08:39:02;26.00;;;9.83;;
16524;SDS011;8375;33.594;-117.718;2022-09-14T08:41:31;23.43;;;9.00;;
16524;SDS011;8375;33.594;-117.718;2022-09-14T08:44:10;25.07;;;9.27;;
16524;SDS011;8375;33.594;-117.718;2022-09-14T08:46:44;24.37;;;9.70;;
16524;SDS011;8375;33.594;-117.718;2022-09-14T08:49:16;20.20;;;8.93;;
16524;SDS011;8375;33.594;-117.718;2022-09-14T08:51:49;18.50;;;8.57;;
16524;SDS011;8375;33.594;-117.718;2022-09-14T08:54:18;20.33;;;9.33;;
16524;SDS011;8375;33.594;-117.718;2022-09-14T08:56:49;19.57;;;8.97;;
16524;SDS011;8375;33.594;-117.718;2022-09-14T08:59:30;28.23;;;9.43;;
16524;SDS011;8375;33.594;-117.718;2022-09-14T09:02:15;21.00;;;8.70;;
16524;SDS011;8375;33.594;-117.718;2022-09-14T09:05:05;21.27;;;9.50;;
16524;SDS011;8375;33.594;-117.718;2022-09-14T09:07:48;25.17;;;8.83;;
16524;SDS011;8375;33.594;-117.718;2022-09-14T09:10:23;20.60;;;8.93;;
16524;SDS011;8375;33.594;-117.718;2022-09-14T09:12:54;20.10;;;8.73;;
16524;SDS011;8375;33.594;-117.718;2022-09-14T09:15:28;20.53;;;8.73;;
16524;SDS011;8375;33.594;-117.718;2022-09-14T09:18:00;21.60;;;8.80;;
16524;SDS011;8375;33.594;-117.718;2022-09-14T09:20:33;21.23;;;9.33;;
16524;SDS011;8375;33.594;-117.718;2022-09-14T09:23:06;19.93;;;7.73;;
16524;SDS011;8375;33.594;-117.718;2022-09-14T09:25:45;23.10;;;9.37;;
16524;SDS011;8375;33.594;-117.718;2022-09-14T09:28:18;25.30;;;9.23;;
16524;SDS011;8375;33.594;-117.718;2022-09-14T09:30:50;22.00;;;8.80;;
16524;SDS011;8375;33.594;-117.718;2022-09-14T09:33:20;23.90;;;9.90;;
16524;SDS011;8375;33.594;-117.718;2022-09-14T09:35:49;23.23;;;9.20;;
16524;SDS011;8375;33.594;-117.718;2022-09-14T09:38:19;20.60;;;8.97;;
16524;SDS011;8375;33.594;-117.718;2022-09-14T09:40:51;20.87;;;8.93;;
16524;SDS011;8375;33.594;-117.718;2022-09-14T09:43:21;26.30;;;9.37;;
16524;SDS011;8375;33.594;-117.718;2022-09-14T09:45:55;26.53;;;10.07;;
16524;SDS011;8375;33.594;-117.718;2022-09-14T09:48:26;20.30;;;9.57;;
16524;SDS011;8375;33.594;-117.718;2022-09-14T09:51:00;21.23;;;10.27;;
16524;SDS011;8375;33.594;-117.718;2022-09-14T09:53:32;20.83;;;9.70;;
16524;SDS011;8375;33.594;-117.718;2022-09-14T09:56:03;21.80;;;9.47;;
16524;SDS011;8375;33.594;-117.718;2022-09-14T09:58:33;26.37;;;9.47;;
16524;SDS011;8375;33.594;-117.718;2022-09-14T10:01:05;23.00;;;9.60;;
16524;SDS011;8375;33.594;-117.718;2022-09-14T10:03:44;23.43;;;9.43;;
16524;SDS011;8375;33.594;-117.718;2022-09-14T10:06:28;27.87;;;10.40;;
16524;SDS011;8375;33.594;-117.718;2022-09-14T10:08:58;28.97;;;10.30;;
16524;SDS011;8375;33.594;-117.718;2022-09-14T10:11:30;26.60;;;10.40;;
16524;SDS011;8375;33.594;-117.718;2022-09-14T10:14:01;29.80;;;9.43;;
16524;SDS011;8375;33.594;-117.718;2022-09-14T10:16:36;19.23;;;9.47;;
16524;SDS011;8375;33.594;-117.718;2022-09-14T10:19:12;22.00;;;10.17;;
16524;SDS011;8375;33.594;-117.718;2022-09-14T10:24:52;26.70;;;10.27;;
16524;SDS011;8375;33.594;-117.718;2022-09-14T10:27:32;26.97;;;10.53;;
16524;SDS011;8375;33.594;-117.718;2022-09-14T10:30:05;30.40;;;10.37;;
16524;SDS011;8375;33.594;-117.718;2022-09-14T10:32:41;26.57;;;10.90;;
16524;SDS011;8375;33.594;-117.718;2022-09-14T10:35:14;30.63;;;10.27;;
16524;SDS011;8375;33.594;-117.718;2022-09-14T10:37:47;26.10;;;9.97;;
16524;SDS011;8375;33.594;-117.718;2022-09-14T10:40:27;26.30;;;10.27;;
16524;SDS011;8375;33.594;-117.718;2022-09-14T10:43:06;22.20;;;9.93;;
16524;SDS011;8375;33.594;-117.718;2022-09-14T10:45:40;26.23;;;10.00;;
16524;SDS011;8375;33.594;-117.718;2022-09-14T10:48:21;22.43;;;10.10;;
16524;SDS011;8375;33.594;-117.718;2022-09-14T10:51:18;27.90;;;9.97;;
16524;SDS011;8375;33.594;-117.718;2022-09-14T10:53:57;24.27;;;10.13;;
16524;SDS011;8375;33.594;-117.718;2022-09-14T10:56:38;19.83;;;9.50;;
16524;SDS011;8375;33.594;-117.718;2022-09-14T10:59:20;19.63;;;9.87;;
16524;SDS011;8375;33.594;-117.718;2022-09-14T11:02:04;23.17;;;9.70;;
16524;SDS011;8375;33.594;-117.718;2022-09-14T11:04:59;20.63;;;9.70;;
16524;SDS011;8375;33.594;-117.718;2022-09-14T11:07:39;25.87;;;10.20;;
16524;SDS011;8375;33.594;-117.718;2022-09-14T11:10:17;28.03;;;10.27;;
16524;SDS011;8375;33.594;-117.718;2022-09-14T11:12:52;23.10;;;10.07;;
16524;SDS011;8375;33.594;-117.718;2022-09-14T11:15:34;25.70;;;10.37;;
16524;SDS011;8375;33.594;-117.718;2022-09-14T11:18:13;24.57;;;10.63;;
16524;SDS011;8375;33.594;-117.718;2022-09-14T11:20:56;24.10;;;9.40;;
16524;SDS011;8375;33.594;-117.718;2022-09-14T11:23:34;25.47;;;10.10;;
16524;SDS011;8375;33.594;-117.718;2022-09-14T11:26:11;23.87;;;10.43;;
16524;SDS011;8375;33.594;-117.718;2022-09-14T11:28:43;26.43;;;10.37;;
16524;SDS011;8375;33.594;-117.718;2022-09-14T11:31:17;25.67;;;10.07;;
16524;SDS011;8375;33.594;-117.718;2022-09-14T11:33:51;23.07;;;9.60;;
16524;SDS011;8375;33.594;-117.718;2022-09-14T11:36:27;24.63;;;10.10;;
16524;SDS011;8375;33.594;-117.718;2022-09-14T11:39:02;24.37;;;10.13;;
16524;SDS011;8375;33.594;-117.718;2022-09-14T11:41:39;26.90;;;9.63;;
16524;SDS011;8375;33.594;-117.718;2022-09-14T11:44:15;23.23;;;9.70;;
16524;SDS011;8375;33.594;-117.718;2022-09-14T11:46:49;22.20;;;9.00;;
16524;SDS011;8375;33.594;-117.718;2022-09-14T11:49:24;21.10;;;9.50;;
16524;SDS011;8375;33.594;-117.718;2022-09-14T11:52:00;26.70;;;10.60;;
16524;SDS011;8375;33.594;-117.718;2022-09-14T11:54:34;32.73;;;10.43;;
16524;SDS011;8375;33.594;-117.718;2022-09-14T11:57:11;19.53;;;10.30;;
16524;SDS011;8375;33.594;-117.718;2022-09-14T11:59:48;23.97;;;10.03;;
16524;SDS011;8375;33.594;-117.718;2022-09-14T12:05:40;24.00;;;10.10;;
16524;SDS011;8375;33.594;-117.718;2022-09-14T12:11:25;22.03;;;9.80;;
16524;SDS011;8375;33.594;-117.718;2022-09-14T12:14:12;28.93;;;9.80;;
16524;SDS011;8375;33.594;-117.718;2022-09-14T12:17:01;24.60;;;10.13;;
16524;SDS011;8375;33.594;-117.718;2022-09-14T12:19:40;25.40;;;9.80;;
16524;SDS011;8375;33.594;-117.718;2022-09-14T12:22:27;21.40;;;9.87;;
16524;SDS011;8375;33.594;-117.718;2022-09-14T12:25:10;17.47;;;9.33;;
16524;SDS011;8375;33.594;-117.718;2022-09-14T12:27:44;21.00;;;9.97;;
16524;SDS011;8375;33.594;-117.718;2022-09-14T12:30:33;25.17;;;9.77;;
16524;SDS011;8375;33.594;-117.718;2022-09-14T12:39:37;25.60;;;10.40;;
16524;SDS011;8375;33.594;-117.718;2022-09-14T12:42:28;22.20;;;9.80;;
16524;SDS011;8375;33.594;-117.718;2022-09-14T12:44:57;20.17;;;9.33;;
16524;SDS011;8375;33.594;-117.718;2022-09-14T12:48:05;20.13;;;9.17;;
16524;SDS011;8375;33.594;-117.718;2022-09-14T12:50:35;21.83;;;9.20;;
16524;SDS011;8375;33.594;-117.718;2022-09-14T12:53:10;18.87;;;9.87;;
16524;SDS011;8375;33.594;-117.718;2022-09-14T12:55:52;18.80;;;9.13;;
16524;SDS011;8375;33.594;-117.718;2022-09-14T13:01:27;22.77;;;10.00;;
16524;SDS011;8375;33.594;-117.718;2022-09-14T13:04:02;18.60;;;9.33;;
16524;SDS011;8375;33.594;-117.718;2022-09-14T13:06:40;21.07;;;9.23;;
16524;SDS011;8375;33.594;-117.718;2022-09-14T13:09:14;20.10;;;9.07;;
16524;SDS011;8375;33.594;-117.718;2022-09-14T13:11:47;18.47;;;9.53;;
16524;SDS011;8375;33.594;-117.718;2022-09-14T13:14:24;24.47;;;9.33;;
16524;SDS011;8375;33.594;-117.718;2022-09-14T13:16:55;21.97;;;9.47;;
16524;SDS011;8375;33.594;-117.718;2022-09-14T13:19:26;18.13;;;9.07;;
16524;SDS011;8375;33.594;-117.718;2022-09-14T13:21:56;16.17;;;9.30;;
16524;SDS011;8375;33.594;-117.718;2022-09-14T13:24:28;20.30;;;9.27;;
16524;SDS011;8375;33.594;-117.718;2022-09-14T13:26:59;19.73;;;9.30;;
16524;SDS011;8375;33.594;-117.718;2022-09-14T13:29:31;19.63;;;8.60;;
16524;SDS011;8375;33.594;-117.718;2022-09-14T13:32:00;16.87;;;8.40;;
16524;SDS011;8375;33.594;-117.718;2022-09-14T13:34:30;17.80;;;9.40;;
16524;SDS011;8375;33.594;-117.718;2022-09-14T13:37:04;18.40;;;9.33;;
16524;SDS011;8375;33.594;-117.718;2022-09-14T13:39:33;20.37;;;9.40;;
16524;SDS011;8375;33.594;-117.718;2022-09-14T13:42:03;19.40;;;9.30;;
16524;SDS011;8375;33.594;-117.718;2022-09-14T13:44:34;16.07;;;8.90;;
16524;SDS011;8375;33.594;-117.718;2022-09-14T13:47:10;17.10;;;8.97;;
16524;SDS011;8375;33.594;-117.718;2022-09-14T13:49:40;18.37;;;9.37;;
16524;SDS011;8375;33.594;-117.718;2022-09-14T13:52:26;25.87;;;9.53;;
16524;SDS011;8375;33.594;-117.718;2022-09-14T13:55:07;17.87;;;8.67;;
16524;SDS011;8375;33.594;-117.718;2022-09-14T14:00:57;18.80;;;8.90;;
16524;SDS011;8375;33.594;-117.718;2022-09-14T14:03:29;20.93;;;9.43;;
16524;SDS011;8375;33.594;-117.718;2022-09-14T14:06:02;16.57;;;9.70;;
16524;SDS011;8375;33.594;-117.718;2022-09-14T14:08:50;19.67;;;8.97;;
16524;SDS011;8375;33.594;-117.718;2022-09-14T14:11:25;14.93;;;8.83;;
16524;SDS011;8375;33.594;-117.718;2022-09-14T14:13:56;16.27;;;9.17;;
16524;SDS011;8375;33.594;-117.718;2022-09-14T14:16:39;19.60;;;8.80;;
16524;SDS011;8375;33.594;-117.718;2022-09-14T14:24:42;14.77;;;7.87;;
16524;SDS011;8375;33.594;-117.718;2022-09-14T14:27:24;15.90;;;7.70;;
16524;SDS011;8375;33.594;-117.718;2022-09-14T14:29:55;14.47;;;8.17;;
16524;SDS011;8375;33.594;-117.718;2022-09-14T14:32:26;13.00;;;7.93;;
16524;SDS011;8375;33.594;-117.718;2022-09-14T14:34:56;16.00;;;8.57;;
16524;SDS011;8375;33.594;-117.718;2022-09-14T14:37:30;12.03;;;7.50;;
16524;SDS011;8375;33.594;-117.718;2022-09-14T14:39:59;15.80;;;7.73;;
16524;SDS011;8375;33.594;-117.718;2022-09-14T14:42:28;14.50;;;7.93;;
16524;SDS011;8375;33.594;-117.718;2022-09-14T14:44:56;14.70;;;8.30;;
16524;SDS011;8375;33.594;-117.718;2022-09-14T14:47:27;16.87;;;8.63;;
16524;SDS011;8375;33.594;-117.718;2022-09-14T14:49:56;16.37;;;8.10;;
16524;SDS011;8375;33.594;-117.718;2022-09-14T14:52:25;15.47;;;8.30;;
16524;SDS011;8375;33.594;-117.718;2022-09-14T14:54:55;14.43;;;7.50;;
16524;SDS011;8375;33.594;-117.718;2022-09-14T14:57:24;13.00;;;7.63;;
16524;SDS011;8375;33.594;-117.718;2022-09-14T14:59:52;13.93;;;7.40;;
16524;SDS011;8375;33.594;-117.718;2022-09-14T15:02:21;16.07;;;7.53;;
16524;SDS011;8375;33.594;-117.718;2022-09-14T15:04:51;15.07;;;7.67;;
16524;SDS011;8375;33.594;-117.718;2022-09-14T15:07:20;17.03;;;7.73;;
16524;SDS011;8375;33.594;-117.718;2022-09-14T15:09:49;17.83;;;7.57;;
16524;SDS011;8375;33.594;-117.718;2022-09-14T15:12:17;16.87;;;7.70;;
16524;SDS011;8375;33.594;-117.718;2022-09-14T15:14:46;16.47;;;6.97;;